createdAt,value
2018-07-04T00:00:10.849Z,4.00
2018-07-04T00:01:10.830Z,4.00
2018-07-04T00:02:10.817Z,4.00
2018-07-04T00:03:10.803Z,4.00
2018-07-04T00:04:10.811Z,4.00
2018-07-04T00:05:10.784Z,4.00
2018-07-04T00:06:10.778Z,4.00
2018-07-04T00:07:10.767Z,4.00
2018-07-04T00:08:10.745Z,4.00
2018-07-04T00:09:10.724Z,4.00
2018-07-04T00:10:10.711Z,4.00
2018-07-04T00:11:10.700Z,4.00
2018-07-04T00:12:10.686Z,4.00
2018-07-04T00:13:10.676Z,4.00
2018-07-04T00:14:10.660Z,4.00
2018-07-04T00:15:10.650Z,4.00
2018-07-04T00:16:10.644Z,4.00
2018-07-04T00:17:10.622Z,4.00
2018-07-04T00:18:10.610Z,4.00
2018-07-04T00:19:10.598Z,4.00
2018-07-04T00:20:10.635Z,4.00
2018-07-04T00:21:10.571Z,4.00
2018-07-04T00:22:10.561Z,4.00
2018-07-04T00:23:10.547Z,4.00
2018-07-04T00:24:10.532Z,4.00
2018-07-04T00:25:10.520Z,4.00
2018-07-04T00:26:10.506Z,4.00
2018-07-04T00:27:10.494Z,4.00
2018-07-04T00:28:10.481Z,4.00
2018-07-04T00:29:10.473Z,4.00
2018-07-04T00:30:10.452Z,4.00
2018-07-04T00:31:10.445Z,4.00
2018-07-04T00:32:10.427Z,4.00
2018-07-04T00:33:10.414Z,4.00
2018-07-04T00:34:10.407Z,4.00
2018-07-04T00:35:10.389Z,4.00
2018-07-04T00:36:10.377Z,4.00
2018-07-04T00:37:10.363Z,4.00
2018-07-04T00:38:10.348Z,4.00
2018-07-04T00:39:10.337Z,4.00
2018-07-04T00:40:10.324Z,4.00
2018-07-04T00:41:10.312Z,4.00
2018-07-04T00:42:10.296Z,4.00
2018-07-04T00:43:10.287Z,4.00
2018-07-04T00:44:10.271Z,4.00
2018-07-04T00:45:10.259Z,4.00
2018-07-04T00:46:10.244Z,4.00
2018-07-04T00:47:10.231Z,4.00
2018-07-04T00:48:10.218Z,4.00
2018-07-04T00:49:10.204Z,4.00
2018-07-04T00:50:10.191Z,4.00
2018-07-04T00:51:10.179Z,4.00
2018-07-04T00:52:10.174Z,4.00
2018-07-04T00:53:10.151Z,4.00
2018-07-04T00:54:10.137Z,4.00
2018-07-04T00:55:10.126Z,4.00
2018-07-04T00:56:10.113Z,4.00
2018-07-04T00:57:10.099Z,4.00
2018-07-04T00:58:10.087Z,4.00
2018-07-04T00:59:10.071Z,4.00
2018-07-04T01:00:10.060Z,4.00
2018-07-04T01:01:10.046Z,4.00
2018-07-04T01:02:10.035Z,4.00
2018-07-04T01:03:10.023Z,4.00
2018-07-04T01:04:10.008Z,4.00
2018-07-04T01:05:09.992Z,4.00
2018-07-04T01:06:09.980Z,4.00
2018-07-04T01:07:09.968Z,4.00
2018-07-04T01:08:09.953Z,4.00
2018-07-04T01:09:09.941Z,4.00
2018-07-04T01:10:09.925Z,4.00
2018-07-04T01:11:09.912Z,4.00
2018-07-04T01:12:09.900Z,4.00
2018-07-04T01:13:09.885Z,4.00
2018-07-04T01:14:09.874Z,4.00
2018-07-04T01:15:09.860Z,4.00
2018-07-04T01:16:09.852Z,4.00
2018-07-04T01:17:09.838Z,4.00
2018-07-04T01:18:09.818Z,4.00
2018-07-04T01:19:09.804Z,4.00
2018-07-04T01:20:09.792Z,4.00
2018-07-04T01:21:09.778Z,4.00
2018-07-04T01:22:09.764Z,4.00
2018-07-04T01:23:09.751Z,4.00
2018-07-04T01:24:09.737Z,4.00
2018-07-04T01:25:09.725Z,4.00
2018-07-04T01:26:09.710Z,4.00
2018-07-04T01:27:09.697Z,4.00
2018-07-04T01:28:09.686Z,4.00
2018-07-04T01:29:09.670Z,4.00
2018-07-04T01:30:09.663Z,4.00
2018-07-04T01:31:09.651Z,4.00
2018-07-04T01:32:09.630Z,4.00
2018-07-04T01:33:09.624Z,4.00
2018-07-04T01:34:09.607Z,4.00
2018-07-04T01:35:09.589Z,4.00
2018-07-04T01:36:09.584Z,4.00
2018-07-04T01:37:09.563Z,4.00
2018-07-04T01:38:09.550Z,4.00
2018-07-04T01:39:09.545Z,4.00
2018-07-04T01:40:09.523Z,4.00
2018-07-04T01:41:09.509Z,4.00
2018-07-04T01:42:09.507Z,4.00
2018-07-04T01:43:09.482Z,4.00
2018-07-04T01:44:09.468Z,4.00
2018-07-04T01:45:09.459Z,4.00
2018-07-04T01:46:09.440Z,4.00
2018-07-04T01:47:09.428Z,4.00
2018-07-04T01:48:09.429Z,4.00
2018-07-04T01:49:09.408Z,4.00
2018-07-04T01:50:09.430Z,4.00
2018-07-04T01:51:09.371Z,4.00
2018-07-04T01:52:09.358Z,4.00
2018-07-04T01:53:09.349Z,4.00
2018-07-04T01:54:09.330Z,4.00
2018-07-04T01:55:09.317Z,4.00
2018-07-04T01:56:09.305Z,4.00
2018-07-04T01:57:09.292Z,4.00
2018-07-04T01:58:09.275Z,4.00
2018-07-04T01:59:09.269Z,4.00
2018-07-04T02:00:09.252Z,4.00
2018-07-04T02:01:09.235Z,4.00
2018-07-04T02:02:09.371Z,4.00
2018-07-04T02:03:09.206Z,4.00
2018-07-04T02:04:09.195Z,4.00
2018-07-04T02:05:09.180Z,4.00
2018-07-04T02:06:09.174Z,4.00
2018-07-04T02:07:09.153Z,4.00
2018-07-04T02:08:09.137Z,4.00
2018-07-04T02:09:09.125Z,4.00
2018-07-04T02:10:09.115Z,8.00
2018-07-04T02:11:09.097Z,8.00
2018-07-04T02:12:09.086Z,8.00
2018-07-04T02:13:09.069Z,4.00
2018-07-04T02:14:09.055Z,4.00
2018-07-04T02:15:09.041Z,4.00
2018-07-04T02:16:09.028Z,4.00
2018-07-04T02:17:09.019Z,4.00
2018-07-04T02:18:09.000Z,4.00
2018-07-04T02:19:08.985Z,4.00
2018-07-04T02:20:08.972Z,4.00
2018-07-04T02:21:08.990Z,4.00
2018-07-04T02:22:08.960Z,4.00
2018-07-04T02:23:08.932Z,4.00
2018-07-04T02:24:08.918Z,4.00
2018-07-04T02:25:08.902Z,4.00
2018-07-04T02:26:08.889Z,8.00
2018-07-04T02:27:08.883Z,8.00
2018-07-04T02:28:08.863Z,4.00
2018-07-04T02:29:08.851Z,4.00
2018-07-04T02:30:08.834Z,4.00
2018-07-04T02:31:08.820Z,8.00
2018-07-04T02:32:08.809Z,8.00
2018-07-04T02:33:08.803Z,4.00
2018-07-04T02:34:08.796Z,8.00
2018-07-04T02:35:08.764Z,8.00
2018-07-04T02:36:08.762Z,8.00
2018-07-04T02:37:08.736Z,8.00
2018-07-04T02:38:08.722Z,8.00
2018-07-04T02:39:08.707Z,12.00
2018-07-04T02:40:08.693Z,12.00
2018-07-04T02:41:08.681Z,12.00
2018-07-04T02:42:08.666Z,12.00
2018-07-04T02:43:08.653Z,12.00
2018-07-04T02:44:08.639Z,12.00
2018-07-04T02:45:08.625Z,16.00
2018-07-04T02:46:08.609Z,16.00
2018-07-04T02:47:08.600Z,20.00
2018-07-04T02:48:08.582Z,20.00
2018-07-04T02:49:08.568Z,20.00
2018-07-04T02:50:08.553Z,20.00
2018-07-04T02:51:08.542Z,24.00
2018-07-04T02:52:08.526Z,24.00
2018-07-04T02:53:08.519Z,28.00
2018-07-04T02:54:08.497Z,36.00
2018-07-04T02:55:08.484Z,40.00
2018-07-04T02:56:08.469Z,40.00
2018-07-04T02:57:08.462Z,48.00
2018-07-04T02:58:08.443Z,52.00
2018-07-04T02:59:08.436Z,60.00
2018-07-04T03:00:08.424Z,64.00
2018-07-04T03:01:08.408Z,72.00
2018-07-04T03:02:08.387Z,76.00
2018-07-04T03:03:08.371Z,88.00
2018-07-04T03:04:08.407Z,92.00
2018-07-04T03:05:08.345Z,104.00
2018-07-04T03:06:08.329Z,116.00
2018-07-04T03:07:08.316Z,124.00
2018-07-04T03:08:08.303Z,136.00
2018-07-04T03:09:08.301Z,152.00
2018-07-04T03:10:08.273Z,168.00
2018-07-04T03:11:08.266Z,184.00
2018-07-04T03:12:08.244Z,200.00
2018-07-04T03:13:08.240Z,220.00
2018-07-04T03:14:08.215Z,240.00
2018-07-04T03:15:08.208Z,264.00
2018-07-04T03:16:08.188Z,284.00
2018-07-04T03:17:08.177Z,312.00
2018-07-04T03:18:08.161Z,332.00
2018-07-04T03:19:08.158Z,356.00
2018-07-04T03:20:08.283Z,380.00
2018-07-04T03:21:08.120Z,392.00
2018-07-04T03:22:08.103Z,416.00
2018-07-04T03:23:08.092Z,436.00
2018-07-04T03:24:08.074Z,456.00
2018-07-04T03:25:08.062Z,476.00
2018-07-04T03:26:08.054Z,504.00
2018-07-04T03:27:08.033Z,528.00
2018-07-04T03:28:08.018Z,560.00
2018-07-04T03:29:08.004Z,592.00
2018-07-04T03:30:07.988Z,624.00
2018-07-04T03:31:07.976Z,652.00
2018-07-04T03:32:07.961Z,676.00
2018-07-04T03:33:07.993Z,712.00
2018-07-04T03:34:07.932Z,752.00
2018-07-04T03:35:07.925Z,792.00
2018-07-04T03:36:07.906Z,840.00
2018-07-04T03:37:07.892Z,888.00
2018-07-04T03:38:07.877Z,940.00
2018-07-04T03:39:07.866Z,996.00
2018-07-04T03:40:07.849Z,1048.00
2018-07-04T03:41:07.835Z,1100.00
2018-07-04T03:42:07.821Z,1160.00
2018-07-04T03:43:07.813Z,1220.00
2018-07-04T03:44:07.790Z,1284.00
2018-07-04T03:45:07.778Z,1356.00
2018-07-04T03:46:07.761Z,1432.00
2018-07-04T03:47:07.799Z,1508.00
2018-07-04T03:48:07.734Z,1576.00
2018-07-04T03:49:07.722Z,1640.00
2018-07-04T03:50:07.707Z,1712.00
2018-07-04T03:51:07.696Z,1776.00
2018-07-04T03:52:07.689Z,1836.00
2018-07-04T03:53:07.674Z,1904.00
2018-07-04T03:54:07.649Z,1956.00
2018-07-04T03:55:07.635Z,2020.00
2018-07-04T03:56:07.621Z,2080.00
2018-07-04T03:57:07.617Z,2140.00
2018-07-04T03:58:07.599Z,2208.00
2018-07-04T03:59:07.578Z,2260.00
2018-07-04T04:00:07.566Z,2304.00
2018-07-04T04:01:07.551Z,2344.00
2018-07-04T04:02:07.537Z,2380.00
2018-07-04T04:03:07.522Z,2416.00
2018-07-04T04:04:07.513Z,2452.00
2018-07-04T04:05:07.495Z,2496.00
2018-07-04T04:06:07.481Z,2548.00
2018-07-04T04:07:07.467Z,2588.00
2018-07-04T04:08:07.452Z,2604.00
2018-07-04T04:09:07.439Z,2592.00
2018-07-04T04:10:07.431Z,2572.00
2018-07-04T04:11:07.412Z,2548.00
2018-07-04T04:12:07.397Z,2532.00
2018-07-04T04:13:07.383Z,2520.00
2018-07-04T04:14:07.367Z,2508.00
2018-07-04T04:15:07.360Z,2516.00
2018-07-04T04:16:07.343Z,2532.00
2018-07-04T04:17:07.327Z,2560.00
2018-07-04T04:18:07.319Z,2604.00
2018-07-04T04:19:07.299Z,2660.00
2018-07-04T04:20:07.289Z,2720.00
2018-07-04T04:21:07.271Z,2780.00
2018-07-04T04:22:07.257Z,2840.00
2018-07-04T04:23:07.251Z,2900.00
2018-07-04T04:24:07.229Z,2972.00
2018-07-04T04:25:07.217Z,3072.00
2018-07-04T04:26:07.201Z,3188.00
2018-07-04T04:27:07.220Z,3316.00
2018-07-04T04:28:07.177Z,3448.00
2018-07-04T04:29:07.167Z,3576.00
2018-07-04T04:30:07.147Z,3704.00
2018-07-04T04:31:07.133Z,3828.00
2018-07-04T04:32:07.119Z,3936.00
2018-07-04T04:33:07.114Z,4048.00
2018-07-04T04:34:07.090Z,4156.00
2018-07-04T04:35:07.076Z,4280.00
2018-07-04T04:36:07.063Z,4392.00
2018-07-04T04:37:07.074Z,4520.00
2018-07-04T04:38:07.040Z,4636.00
2018-07-04T04:39:07.035Z,4708.00
2018-07-04T04:40:07.008Z,4804.00
2018-07-04T04:41:06.993Z,4892.00
2018-07-04T04:42:06.986Z,4996.00
2018-07-04T04:43:06.968Z,5092.00
2018-07-04T04:44:06.950Z,5164.00
2018-07-04T04:45:06.939Z,5244.00
2018-07-04T04:46:06.921Z,5312.00
2018-07-04T04:47:06.915Z,5408.00
2018-07-04T04:48:06.917Z,5524.00
2018-07-04T04:49:06.882Z,5664.00
2018-07-04T04:50:06.872Z,5776.00
2018-07-04T04:51:06.856Z,6004.00
2018-07-04T04:52:06.842Z,6356.00
2018-07-04T04:53:06.828Z,6724.00
2018-07-04T04:54:06.818Z,6800.00
2018-07-04T04:55:06.799Z,6720.00
2018-07-04T04:56:06.786Z,6600.00
2018-07-04T04:57:06.772Z,6336.00
2018-07-04T04:58:06.760Z,5964.00
2018-07-04T04:59:06.753Z,5428.00
2018-07-04T05:00:06.738Z,4984.00
2018-07-04T05:01:06.718Z,4624.00
2018-07-04T05:02:06.705Z,4404.00
2018-07-04T05:03:06.689Z,4268.00
2018-07-04T05:04:06.675Z,4352.00
2018-07-04T05:05:06.666Z,4512.00
2018-07-04T05:06:06.650Z,4592.00
2018-07-04T05:07:06.636Z,4584.00
2018-07-04T05:08:06.624Z,4764.00
2018-07-04T05:09:06.608Z,4868.00
2018-07-04T05:10:06.598Z,4924.00
2018-07-04T05:11:06.582Z,5128.00
2018-07-04T05:12:06.572Z,5400.00
2018-07-04T05:13:06.556Z,5712.00
2018-07-04T05:14:06.550Z,6008.00
2018-07-04T05:15:06.528Z,6428.00
2018-07-04T05:16:06.514Z,6924.00
2018-07-04T05:17:06.502Z,7284.00
2018-07-04T05:18:06.487Z,7324.00
2018-07-04T05:19:06.476Z,7260.00
2018-07-04T05:20:06.462Z,7220.00
2018-07-04T05:21:06.449Z,7184.00
2018-07-04T05:22:06.434Z,7148.00
2018-07-04T05:23:06.421Z,7388.00
2018-07-04T05:24:06.410Z,7688.00
2018-07-04T05:25:06.396Z,8052.00
2018-07-04T05:26:06.383Z,8444.00
2018-07-04T05:27:06.369Z,8860.00
2018-07-04T05:28:06.354Z,9236.00
2018-07-04T05:29:06.341Z,9636.00
2018-07-04T05:30:06.330Z,10024.00
2018-07-04T05:31:06.316Z,10408.00
2018-07-04T05:32:06.352Z,10724.00
2018-07-04T05:33:06.291Z,10704.00
2018-07-04T05:34:06.284Z,10692.00
2018-07-04T05:35:06.318Z,10916.00
2018-07-04T05:36:06.254Z,11456.00
2018-07-04T05:37:06.247Z,11504.00
2018-07-04T05:38:06.231Z,11316.00
2018-07-04T05:39:06.213Z,10616.00
2018-07-04T05:40:06.206Z,10560.00
2018-07-04T05:41:06.189Z,10964.00
2018-07-04T05:42:06.174Z,12832.00
2018-07-04T05:43:06.177Z,13780.00
2018-07-04T05:44:06.148Z,16448.00
2018-07-04T05:45:06.137Z,22304.00
2018-07-04T05:46:06.130Z,37760.00
2018-07-04T05:47:06.136Z,36864.00
2018-07-04T05:48:06.199Z,32896.00
2018-07-04T05:49:06.109Z,27296.00
2018-07-04T05:50:06.079Z,40064.00
2018-07-04T05:51:06.064Z,42464.00
2018-07-04T05:52:06.116Z,38176.00
2018-07-04T05:53:06.043Z,39040.00
2018-07-04T05:54:06.031Z,18592.00
2018-07-04T05:55:06.021Z,14872.00
2018-07-04T05:56:06.013Z,14004.00
2018-07-04T05:57:05.999Z,13548.00
2018-07-04T05:58:05.991Z,13444.00
2018-07-04T05:59:05.993Z,13988.00
2018-07-04T06:00:05.972Z,15124.00
2018-07-04T06:01:05.964Z,15792.00
2018-07-04T06:02:05.956Z,16512.00
2018-07-04T06:03:05.944Z,15280.00
2018-07-04T06:04:05.929Z,17536.00
2018-07-04T06:05:05.928Z,34720.00
2018-07-04T06:06:05.909Z,18656.00
2018-07-04T06:07:05.899Z,17152.00
2018-07-04T06:08:05.889Z,17120.00
2018-07-04T06:09:05.915Z,20608.00
2018-07-04T06:10:05.871Z,42240.00
2018-07-04T06:11:05.859Z,43520.00
2018-07-04T06:12:05.860Z,39968.00
2018-07-04T06:13:05.848Z,36480.00
2018-07-04T06:14:05.836Z,45568.00
2018-07-04T06:15:05.839Z,33408.00
2018-07-04T06:16:05.817Z,25312.00
2018-07-04T06:17:05.805Z,24032.00
2018-07-04T06:18:05.797Z,26720.00
2018-07-04T06:19:05.790Z,30112.00
2018-07-04T06:20:05.778Z,35552.00
2018-07-04T06:21:05.775Z,31328.00
2018-07-04T06:22:05.765Z,29472.00
2018-07-04T06:23:05.756Z,30592.00
2018-07-04T06:24:05.748Z,42592.00
2018-07-04T06:25:05.741Z,27040.00
2018-07-04T06:26:05.731Z,27840.00
2018-07-04T06:27:05.724Z,24352.00
2018-07-04T06:28:05.718Z,16640.00
2018-07-04T06:29:05.714Z,15500.00
2018-07-04T06:30:05.704Z,14972.00
2018-07-04T06:31:05.695Z,14792.00
2018-07-04T06:32:05.688Z,14996.00
2018-07-04T06:33:05.679Z,14336.00
2018-07-04T06:34:05.672Z,14164.00
2018-07-04T06:35:05.666Z,14076.00
2018-07-04T06:36:05.665Z,14436.00
2018-07-04T06:37:05.652Z,15480.00
2018-07-04T06:38:05.659Z,14476.00
2018-07-04T06:39:05.687Z,14336.00
2018-07-04T06:40:05.634Z,14536.00
2018-07-04T06:41:05.722Z,14676.00
2018-07-04T06:42:05.609Z,14768.00
2018-07-04T06:43:05.606Z,14828.00
2018-07-04T06:44:05.644Z,14888.00
2018-07-04T06:45:05.583Z,15204.00
2018-07-04T06:46:05.576Z,15336.00
2018-07-04T06:47:05.575Z,15464.00
2018-07-04T06:48:05.560Z,15760.00
2018-07-04T06:49:05.606Z,16224.00
2018-07-04T06:50:05.548Z,16256.00
2018-07-04T06:51:05.532Z,15908.00
2018-07-04T06:52:05.525Z,15712.00
2018-07-04T06:53:05.515Z,15812.00
2018-07-04T06:54:05.523Z,15304.00
2018-07-04T06:55:05.499Z,15632.00
2018-07-04T06:56:05.496Z,15740.00
2018-07-04T06:57:05.489Z,15264.00
2018-07-04T06:58:05.471Z,14944.00
2018-07-04T06:59:05.463Z,14568.00
2018-07-04T07:00:05.457Z,14676.00
2018-07-04T07:01:05.446Z,14956.00
2018-07-04T07:02:05.437Z,15480.00
2018-07-04T07:03:05.427Z,16032.00
2018-07-04T07:04:05.416Z,16928.00
2018-07-04T07:05:05.411Z,17792.00
2018-07-04T07:06:05.398Z,18272.00
2018-07-04T07:07:05.388Z,19456.00
2018-07-04T07:08:05.438Z,19648.00
2018-07-04T07:09:05.370Z,19136.00
2018-07-04T07:10:05.361Z,18272.00
2018-07-04T07:11:05.350Z,17344.00
2018-07-04T07:12:05.341Z,16416.00
2018-07-04T07:13:05.336Z,15592.00
2018-07-04T07:14:05.322Z,15536.00
2018-07-04T07:15:05.313Z,15452.00
2018-07-04T07:16:05.303Z,15396.00
2018-07-04T07:17:05.296Z,15852.00
2018-07-04T07:18:05.284Z,17152.00
2018-07-04T07:19:05.276Z,20320.00
2018-07-04T07:20:05.278Z,25728.00
2018-07-04T07:21:05.272Z,36032.00
2018-07-04T07:22:05.251Z,38560.00
2018-07-04T07:23:05.240Z,42112.00
2018-07-04T07:24:05.230Z,52448.00
2018-07-04T07:25:05.223Z,39264.00
2018-07-04T07:26:05.212Z,64544.00
2018-07-04T07:27:05.213Z,50592.00
2018-07-04T07:28:05.197Z,27360.00
2018-07-04T07:29:05.190Z,28928.00
2018-07-04T07:30:05.183Z,26272.00
2018-07-04T07:31:05.172Z,22848.00
2018-07-04T07:32:05.208Z,22368.00
2018-07-04T07:33:05.156Z,22624.00
2018-07-04T07:34:05.278Z,25888.00
2018-07-04T07:35:05.156Z,23584.00
2018-07-04T07:36:05.134Z,45344.00
2018-07-04T07:37:05.127Z,28768.00
2018-07-04T07:38:05.119Z,28384.00
2018-07-04T07:39:05.110Z,27680.00
2018-07-04T07:40:05.111Z,27360.00
2018-07-04T07:41:05.097Z,25376.00
2018-07-04T07:42:05.106Z,24064.00
2018-07-04T07:43:05.086Z,23424.00
2018-07-04T07:44:05.076Z,24288.00
2018-07-04T07:45:05.069Z,25024.00
2018-07-04T07:46:05.060Z,25248.00
2018-07-04T07:47:05.054Z,25056.00
2018-07-04T07:48:05.071Z,24544.00
2018-07-04T07:49:05.040Z,23456.00
2018-07-04T07:50:05.030Z,23008.00
2018-07-04T07:51:05.023Z,22464.00
2018-07-04T07:52:05.016Z,22048.00
2018-07-04T07:53:05.012Z,22592.00
2018-07-04T07:54:05.060Z,23328.00
2018-07-04T07:55:04.994Z,24224.00
2018-07-04T07:56:05.002Z,25376.00
2018-07-04T07:57:04.980Z,25792.00
2018-07-04T07:58:04.982Z,26112.00
2018-07-04T07:59:04.966Z,25280.00
2018-07-04T08:00:04.974Z,25376.00
2018-07-04T08:01:04.953Z,22240.00
2018-07-04T08:02:04.943Z,21376.00
2018-07-04T08:03:04.946Z,21312.00
2018-07-04T08:04:04.931Z,21024.00
2018-07-04T08:05:04.922Z,20928.00
2018-07-04T08:06:04.913Z,21632.00
2018-07-04T08:07:04.911Z,23072.00
2018-07-04T08:08:04.900Z,24160.00
2018-07-04T08:09:04.897Z,25344.00
2018-07-04T08:10:04.887Z,26848.00
2018-07-04T08:11:04.880Z,26784.00
2018-07-04T08:12:04.871Z,27264.00
2018-07-04T08:13:04.869Z,30240.00
2018-07-04T08:14:04.859Z,26528.00
2018-07-04T08:15:04.848Z,25536.00
2018-07-04T08:16:04.856Z,25344.00
2018-07-04T08:17:04.832Z,25440.00
2018-07-04T08:18:04.827Z,29088.00
2018-07-04T08:19:04.822Z,25152.00
2018-07-04T08:20:04.822Z,25408.00
2018-07-04T08:21:04.805Z,24960.00
2018-07-04T08:22:04.798Z,24288.00
2018-07-04T08:23:04.791Z,24704.00
2018-07-04T08:24:04.793Z,25888.00
2018-07-04T08:25:04.785Z,24192.00
2018-07-04T08:26:04.768Z,23392.00
2018-07-04T08:27:04.804Z,23680.00
2018-07-04T08:28:04.755Z,23136.00
2018-07-04T08:29:04.748Z,23040.00
2018-07-04T08:30:04.741Z,23136.00
2018-07-04T08:31:04.736Z,23456.00
2018-07-04T08:32:04.727Z,24192.00
2018-07-04T08:33:04.726Z,24448.00
2018-07-04T08:34:04.712Z,24576.00
2018-07-04T08:35:04.705Z,24160.00
2018-07-04T08:36:04.700Z,23712.00
2018-07-04T08:37:04.692Z,23008.00
2018-07-04T08:38:04.692Z,22240.00
2018-07-04T08:39:04.680Z,21472.00
2018-07-04T08:40:04.672Z,20896.00
2018-07-04T08:41:04.663Z,20480.00
2018-07-04T08:42:04.705Z,20160.00
2018-07-04T08:43:04.648Z,22080.00
2018-07-04T08:44:04.641Z,19552.00
2018-07-04T08:45:04.644Z,19488.00
2018-07-04T08:46:04.625Z,19904.00
2018-07-04T08:47:04.620Z,19232.00
2018-07-04T08:48:04.613Z,24512.00
2018-07-04T08:49:04.605Z,23968.00
2018-07-04T08:50:04.596Z,24608.00
2018-07-04T08:51:04.600Z,21792.00
2018-07-04T08:52:04.585Z,20928.00
2018-07-04T08:53:04.580Z,20256.00
2018-07-04T08:54:04.568Z,21408.00
2018-07-04T08:55:04.561Z,23104.00
2018-07-04T08:56:04.558Z,20896.00
2018-07-04T08:57:04.546Z,20768.00
2018-07-04T08:58:04.540Z,20448.00
2018-07-04T08:59:04.540Z,21472.00
2018-07-04T09:00:04.536Z,21408.00
2018-07-04T09:01:04.527Z,22208.00
2018-07-04T09:02:04.510Z,23456.00
2018-07-04T09:03:04.503Z,24384.00
2018-07-04T09:04:04.497Z,31712.00
2018-07-04T09:05:04.495Z,38336.00
2018-07-04T09:06:04.484Z,36352.00
2018-07-04T09:07:04.476Z,53568.00
2018-07-04T09:08:04.476Z,29088.00
2018-07-04T09:09:04.472Z,34368.00
2018-07-04T09:10:04.475Z,55296.00
2018-07-04T09:11:04.451Z,76192.00
2018-07-04T09:12:04.444Z,88288.00
2018-07-04T09:13:04.437Z,84096.00
2018-07-04T09:14:04.433Z,86976.00
2018-07-04T09:15:04.428Z,87552.00
2018-07-04T09:16:04.438Z,89152.00
2018-07-04T09:17:04.422Z,91872.00
2018-07-04T09:18:04.411Z,90272.00
2018-07-04T09:19:04.408Z,85792.00
2018-07-04T09:20:04.403Z,89984.00
2018-07-04T09:21:04.400Z,85312.00
2018-07-04T09:22:04.399Z,83520.00
2018-07-04T09:23:04.402Z,81408.00
2018-07-04T09:24:04.398Z,83136.00
2018-07-04T09:25:04.490Z,61504.00
2018-07-04T09:26:04.393Z,37248.00
2018-07-04T09:27:04.384Z,79168.00
2018-07-04T09:28:04.384Z,79776.00
2018-07-04T09:29:04.381Z,77120.00
2018-07-04T09:30:04.379Z,48608.00
2018-07-04T09:31:04.378Z,50368.00
2018-07-04T09:32:04.374Z,72832.00
2018-07-04T09:33:04.374Z,25280.00
2018-07-04T09:34:04.372Z,24704.00
2018-07-04T09:35:04.369Z,25152.00
2018-07-04T09:36:04.373Z,25856.00
2018-07-04T09:37:04.369Z,86240.00
2018-07-04T09:38:04.366Z,50784.00
2018-07-04T09:39:04.364Z,75168.00
2018-07-04T09:40:04.364Z,64320.00
2018-07-04T09:41:04.378Z,77920.00
2018-07-04T09:42:04.361Z,72864.00
2018-07-04T09:43:04.358Z,70080.00
2018-07-04T09:44:04.358Z,63904.00
2018-07-04T09:45:04.357Z,65696.00
2018-07-04T09:46:04.371Z,29824.00
2018-07-04T09:47:04.356Z,31648.00
2018-07-04T09:48:04.363Z,25760.00
2018-07-04T09:49:04.359Z,33184.00
2018-07-04T09:50:04.405Z,25216.00
2018-07-04T09:51:04.353Z,23488.00
2018-07-04T09:52:04.358Z,61088.00
2018-07-04T09:53:04.350Z,24032.00
2018-07-04T09:54:04.351Z,23808.00
2018-07-04T09:55:04.355Z,24064.00
2018-07-04T09:56:04.348Z,24288.00
2018-07-04T09:57:04.353Z,23936.00
2018-07-04T09:58:04.349Z,23936.00
2018-07-04T09:59:04.351Z,25120.00
2018-07-04T10:00:04.344Z,29536.00
2018-07-04T10:01:04.345Z,30656.00
2018-07-04T10:02:04.350Z,36480.00
2018-07-04T10:03:04.335Z,30816.00
2018-07-04T10:04:04.333Z,42880.00
2018-07-04T10:05:04.331Z,31232.00
2018-07-04T10:06:04.329Z,28064.00
2018-07-04T10:07:04.350Z,36224.00
2018-07-04T10:08:04.333Z,41344.00
2018-07-04T10:09:04.323Z,41280.00
2018-07-04T10:10:04.322Z,51072.00
2018-07-04T10:11:04.326Z,69664.00
2018-07-04T10:12:04.317Z,36608.00
2018-07-04T10:13:04.315Z,60416.00
2018-07-04T10:14:04.319Z,52960.00
2018-07-04T10:15:04.313Z,99200.00
2018-07-04T10:16:04.310Z,104000.00
2018-07-04T10:17:04.311Z,104512.00
2018-07-04T10:18:04.313Z,102336.00
2018-07-04T10:19:04.308Z,82816.00
2018-07-04T10:20:04.310Z,91264.00
2018-07-04T10:21:04.311Z,75744.00
2018-07-04T10:22:04.310Z,93760.00
2018-07-04T10:23:04.311Z,112768.00
2018-07-04T10:24:04.313Z,115040.00
2018-07-04T10:25:04.317Z,109792.00
2018-07-04T10:26:04.315Z,107072.00
2018-07-04T10:27:04.326Z,106464.00
2018-07-04T10:28:04.322Z,74080.00
2018-07-04T10:29:04.324Z,63776.00
2018-07-04T10:30:04.328Z,59488.00
2018-07-04T10:31:04.331Z,82944.00
2018-07-04T10:32:04.336Z,92800.00
2018-07-04T10:33:04.356Z,95360.00
2018-07-04T10:34:04.343Z,90272.00
2018-07-04T10:35:04.347Z,90848.00
2018-07-04T10:36:04.354Z,93600.00
2018-07-04T10:37:04.362Z,88800.00
2018-07-04T10:38:04.367Z,88768.00
2018-07-04T10:39:04.371Z,94336.00
2018-07-04T10:40:04.371Z,98912.00
2018-07-04T10:41:04.379Z,98048.00
2018-07-04T10:42:04.403Z,94752.00
2018-07-04T10:43:04.382Z,95072.00
2018-07-04T10:44:04.388Z,92960.00
2018-07-04T10:45:04.394Z,92544.00
2018-07-04T10:46:04.399Z,88512.00
2018-07-04T10:47:04.401Z,97984.00
2018-07-04T10:48:04.419Z,92928.00
2018-07-04T10:49:04.616Z,87232.00
2018-07-04T10:50:04.427Z,74336.00
2018-07-04T10:51:04.513Z,91840.00
2018-07-04T10:52:04.429Z,89376.00
2018-07-04T10:53:04.448Z,94400.00
2018-07-04T10:54:04.449Z,94432.00
2018-07-04T10:55:04.448Z,99072.00
2018-07-04T10:56:04.458Z,97376.00
2018-07-04T10:57:04.459Z,97696.00
2018-07-04T10:58:04.467Z,99232.00
2018-07-04T10:59:04.473Z,97952.00
2018-07-04T11:00:04.485Z,95200.00
2018-07-04T11:01:04.491Z,96320.00
2018-07-04T11:02:04.494Z,95040.00
2018-07-04T11:03:04.506Z,96480.00
2018-07-04T11:04:04.513Z,99456.00
2018-07-04T11:05:04.517Z,99968.00
2018-07-04T11:06:04.522Z,96096.00
2018-07-04T11:07:04.528Z,94240.00
2018-07-04T11:08:04.536Z,89984.00
2018-07-04T11:09:04.568Z,87840.00
2018-07-04T11:10:04.561Z,82912.00
2018-07-04T11:11:04.576Z,81984.00
2018-07-04T11:12:04.568Z,77664.00
2018-07-04T11:13:04.590Z,87008.00
2018-07-04T11:14:04.585Z,93760.00
2018-07-04T11:15:04.590Z,91744.00
2018-07-04T11:16:04.624Z,89248.00
2018-07-04T11:17:04.706Z,87456.00
2018-07-04T11:18:04.610Z,82112.00
2018-07-04T11:19:04.645Z,69024.00
2018-07-04T11:20:04.633Z,69056.00
2018-07-04T11:21:04.648Z,72384.00
2018-07-04T11:22:04.646Z,73088.00
2018-07-04T11:23:04.657Z,71968.00
2018-07-04T11:24:04.658Z,73664.00
2018-07-04T11:25:04.667Z,72288.00
2018-07-04T11:26:04.672Z,71712.00
2018-07-04T11:27:04.681Z,67264.00
2018-07-04T11:28:04.687Z,62624.00
2018-07-04T11:29:04.708Z,59776.00
2018-07-04T11:30:04.703Z,60672.00
2018-07-04T11:31:04.709Z,66592.00
2018-07-04T11:32:04.716Z,70176.00
2018-07-04T11:33:04.722Z,66976.00
2018-07-04T11:34:04.730Z,65856.00
2018-07-04T11:35:04.735Z,63424.00
2018-07-04T11:36:04.745Z,66144.00
2018-07-04T11:37:04.752Z,74240.00
2018-07-04T11:38:04.760Z,74176.00
2018-07-04T11:39:04.768Z,72704.00
2018-07-04T11:40:04.764Z,68992.00
2018-07-04T11:41:04.772Z,78528.00
2018-07-04T11:42:04.775Z,74400.00
2018-07-04T11:43:04.779Z,78560.00
2018-07-04T11:44:04.787Z,81856.00
2018-07-04T11:45:04.792Z,77568.00
2018-07-04T11:46:04.794Z,73600.00
2018-07-04T11:47:04.807Z,70368.00
2018-07-04T11:48:04.810Z,68480.00
2018-07-04T11:49:04.808Z,38464.00
2018-07-04T11:50:04.813Z,17984.00
2018-07-04T11:51:04.824Z,15896.00
2018-07-04T11:52:04.833Z,15192.00
2018-07-04T11:53:04.831Z,14792.00
2018-07-04T11:54:04.833Z,14440.00
2018-07-04T11:55:04.831Z,14272.00
2018-07-04T11:56:04.843Z,14144.00
2018-07-04T11:57:04.879Z,14224.00
2018-07-04T11:58:04.856Z,14320.00
2018-07-04T11:59:04.865Z,14348.00
2018-07-04T12:00:04.842Z,14064.00
2018-07-04T12:01:04.849Z,13844.00
2018-07-04T12:02:04.855Z,13752.00
2018-07-04T12:03:04.850Z,13992.00
2018-07-04T12:04:04.853Z,14460.00
2018-07-04T12:05:04.850Z,14888.00
2018-07-04T12:06:04.859Z,14916.00
2018-07-04T12:07:04.849Z,15072.00
2018-07-04T12:08:04.854Z,15284.00
2018-07-04T12:09:04.848Z,15380.00
2018-07-04T12:10:04.851Z,14768.00